sensor_id;sensor_type;location;lat;lon;timestamp;temperature;humidity
18365;DHT22;9309;52.126;11.616;2022-10-03T00:01:20;11.20;85.50
18365;DHT22;9309;52.126;11.616;2022-10-03T00:03:56;11.00;86.00
18365;DHT22;9309;52.126;11.616;2022-10-03T00:06:32;11.10;85.80
18365;DHT22;9309;52.126;11.616;2022-10-03T00:12:13;11.00;86.10
18365;DHT22;9309;52.126;11.616;2022-10-03T00:14:47;11.10;85.90
18365;DHT22;9309;52.126;11.616;2022-10-03T00:17:26;11.00;86.10
18365;DHT22;9309;52.126;11.616;2022-10-03T00:20:01;11.00;86.10
18365;DHT22;9309;52.126;11.616;2022-10-03T00:22:36;11.10;86.10
18365;DHT22;9309;52.126;11.616;2022-10-03T00:25:23;11.10;85.80
18365;DHT22;9309;52.126;11.616;2022-10-03T00:28:06;11.00;86.30
18365;DHT22;9309;52.126;11.616;2022-10-03T00:30:51;11.00;86.50
18365;DHT22;9309;52.126;11.616;2022-10-03T00:33:27;10.90;86.50
18365;DHT22;9309;52.126;11.616;2022-10-03T00:36:03;10.90;86.50
18365;DHT22;9309;52.126;11.616;2022-10-03T00:38:59;10.80;87.30
18365;DHT22;9309;52.126;11.616;2022-10-03T00:45:01;10.90;87.00
18365;DHT22;9309;52.126;11.616;2022-10-03T00:48:05;10.90;86.70
18365;DHT22;9309;52.126;11.616;2022-10-03T00:53:35;10.80;87.40
18365;DHT22;9309;52.126;11.616;2022-10-03T00:56:34;10.80;87.10
18365;DHT22;9309;52.126;11.616;2022-10-03T00:59:21;10.80;87.60
18365;DHT22;9309;52.126;11.616;2022-10-03T01:01:53;10.80;87.80
18365;DHT22;9309;52.126;11.616;2022-10-03T01:04:40;10.90;87.10
18365;DHT22;9309;52.126;11.616;2022-10-03T01:07:22;10.90;87.00
18365;DHT22;9309;52.126;11.616;2022-10-03T01:10:00;10.90;87.20
18365;DHT22;9309;52.126;11.616;2022-10-03T01:13:01;10.90;87.20
18365;DHT22;9309;52.126;11.616;2022-10-03T01:15:37;10.90;87.30
18365;DHT22;9309;52.126;11.616;2022-10-03T01:18:15;10.90;87.40
18365;DHT22;9309;52.126;11.616;2022-10-03T01:20:51;10.90;87.50
18365;DHT22;9309;52.126;11.616;2022-10-03T01:26:55;10.90;87.50
18365;DHT22;9309;52.126;11.616;2022-10-03T01:29:31;10.90;87.40
18365;DHT22;9309;52.126;11.616;2022-10-03T01:32:24;10.80;87.50
18365;DHT22;9309;52.126;11.616;2022-10-03T01:34:59;10.70;88.10
18365;DHT22;9309;52.126;11.616;2022-10-03T01:37:39;10.80;88.00
18365;DHT22;9309;52.126;11.616;2022-10-03T01:40:15;10.80;88.00
18365;DHT22;9309;52.126;11.616;2022-10-03T01:42:56;10.90;87.90
18365;DHT22;9309;52.126;11.616;2022-10-03T01:45:34;11.00;87.10
18365;DHT22;9309;52.126;11.616;2022-10-03T01:48:05;11.10;86.50
18365;DHT22;9309;52.126;11.616;2022-10-03T01:50:36;11.10;86.30
18365;DHT22;9309;52.126;11.616;2022-10-03T01:53:09;11.20;86.30
18365;DHT22;9309;52.126;11.616;2022-10-03T01:55:45;11.10;86.60
18365;DHT22;9309;52.126;11.616;2022-10-03T01:58:22;11.20;86.50
18365;DHT22;9309;52.126;11.616;2022-10-03T02:00:56;11.20;86.60
18365;DHT22;9309;52.126;11.616;2022-10-03T02:03:29;11.30;86.30
18365;DHT22;9309;52.126;11.616;2022-10-03T02:06:03;11.20;86.90
18365;DHT22;9309;52.126;11.616;2022-10-03T02:08:43;11.30;86.70
18365;DHT22;9309;52.126;11.616;2022-10-03T02:11:25;11.30;86.50
18365;DHT22;9309;52.126;11.616;2022-10-03T02:13:58;11.30;86.70
18365;DHT22;9309;52.126;11.616;2022-10-03T02:16:35;11.40;86.20
18365;DHT22;9309;52.126;11.616;2022-10-03T02:19:11;11.30;86.40
18365;DHT22;9309;52.126;11.616;2022-10-03T02:21:46;11.40;86.40
18365;DHT22;9309;52.126;11.616;2022-10-03T02:24:26;11.40;85.70
18365;DHT22;9309;52.126;11.616;2022-10-03T02:27:27;11.40;86.10
18365;DHT22;9309;52.126;11.616;2022-10-03T02:33:23;11.50;85.80
18365;DHT22;9309;52.126;11.616;2022-10-03T02:36:29;11.50;85.70
18365;DHT22;9309;52.126;11.616;2022-10-03T02:39:22;11.50;86.10
18365;DHT22;9309;52.126;11.616;2022-10-03T02:45:27;11.30;86.90
18365;DHT22;9309;52.126;11.616;2022-10-03T02:51:23;11.30;87.10
18365;DHT22;9309;52.126;11.616;2022-10-03T02:54:19;11.30;86.80
18365;DHT22;9309;52.126;11.616;2022-10-03T02:57:24;11.30;87.20
18365;DHT22;9309;52.126;11.616;2022-10-03T03:00:05;11.20;87.20
18365;DHT22;9309;52.126;11.616;2022-10-03T03:03:07;11.10;87.80
18365;DHT22;9309;52.126;11.616;2022-10-03T03:09:03;11.00;88.10
18365;DHT22;9309;52.126;11.616;2022-10-03T03:11:56;11.00;88.50
18365;DHT22;9309;52.126;11.616;2022-10-03T03:14:46;10.90;88.50
18365;DHT22;9309;52.126;11.616;2022-10-03T03:17:26;10.90;88.80
18365;DHT22;9309;52.126;11.616;2022-10-03T03:20:10;10.90;89.00
18365;DHT22;9309;52.126;11.616;2022-10-03T03:22:52;10.80;89.10
18365;DHT22;9309;52.126;11.616;2022-10-03T03:25:56;10.90;89.00
18365;DHT22;9309;52.126;11.616;2022-10-03T03:28:33;10.90;89.30
18365;DHT22;9309;52.126;11.616;2022-10-03T03:31:08;10.80;89.40
18365;DHT22;9309;52.126;11.616;2022-10-03T03:33:46;10.90;89.10
18365;DHT22;9309;52.126;11.616;2022-10-03T03:36:22;10.90;88.90
18365;DHT22;9309;52.126;11.616;2022-10-03T03:38:59;10.90;89.00
18365;DHT22;9309;52.126;11.616;2022-10-03T03:41:56;10.80;89.20
18365;DHT22;9309;52.126;11.616;2022-10-03T03:47:43;10.80;88.80
18365;DHT22;9309;52.126;11.616;2022-10-03T03:50:32;10.80;89.20
18365;DHT22;9309;52.126;11.616;2022-10-03T03:53:24;10.80;89.30
18365;DHT22;9309;52.126;11.616;2022-10-03T03:56:16;10.80;89.00
18365;DHT22;9309;52.126;11.616;2022-10-03T03:58:56;10.90;88.70
18365;DHT22;9309;52.126;11.616;2022-10-03T04:01:38;10.90;88.30
18365;DHT22;9309;52.126;11.616;2022-10-03T04:04:20;10.90;88.30
18365;DHT22;9309;52.126;11.616;2022-10-03T04:06:56;10.80;89.10
18365;DHT22;9309;52.126;11.616;2022-10-03T04:09:45;10.80;89.10
18365;DHT22;9309;52.126;11.616;2022-10-03T04:12:25;11.00;88.40
18365;DHT22;9309;52.126;11.616;2022-10-03T04:15:15;10.90;89.00
18365;DHT22;9309;52.126;11.616;2022-10-03T04:18:00;10.90;89.00
18365;DHT22;9309;52.126;11.616;2022-10-03T04:21:05;10.80;89.30
18365;DHT22;9309;52.126;11.616;2022-10-03T04:26:45;10.80;89.00
18365;DHT22;9309;52.126;11.616;2022-10-03T04:29:38;10.80;89.30
18365;DHT22;9309;52.126;11.616;2022-10-03T04:32:16;11.00;88.50
18365;DHT22;9309;52.126;11.616;2022-10-03T04:35:00;10.90;89.00
18365;DHT22;9309;52.126;11.616;2022-10-03T04:37:36;11.00;88.80
18365;DHT22;9309;52.126;11.616;2022-10-03T04:40:22;11.00;87.90
18365;DHT22;9309;52.126;11.616;2022-10-03T04:42:58;11.10;87.50
18365;DHT22;9309;52.126;11.616;2022-10-03T04:45:39;11.20;87.10
18365;DHT22;9309;52.126;11.616;2022-10-03T04:48:14;11.00;87.90
18365;DHT22;9309;52.126;11.616;2022-10-03T04:50:46;11.10;87.60
18365;DHT22;9309;52.126;11.616;2022-10-03T04:53:22;11.10;86.90
18365;DHT22;9309;52.126;11.616;2022-10-03T04:55:55;11.20;86.70
18365;DHT22;9309;52.126;11.616;2022-10-03T04:58:35;11.20;87.20
18365;DHT22;9309;52.126;11.616;2022-10-03T05:01:09;11.20;86.50
18365;DHT22;9309;52.126;11.616;2022-10-03T05:03:48;11.10;86.80
18365;DHT22;9309;52.126;11.616;2022-10-03T05:06:27;11.10;87.20
18365;DHT22;9309;52.126;11.616;2022-10-03T05:09:03;11.20;86.70
18365;DHT22;9309;52.126;11.616;2022-10-03T05:11:47;11.10;87.10
18365;DHT22;9309;52.126;11.616;2022-10-03T05:14:24;11.00;87.60
18365;DHT22;9309;52.126;11.616;2022-10-03T05:16:59;11.00;87.40
18365;DHT22;9309;52.126;11.616;2022-10-03T05:19:43;11.00;87.60
18365;DHT22;9309;52.126;11.616;2022-10-03T05:22:19;11.00;87.80
18365;DHT22;9309;52.126;11.616;2022-10-03T05:24:55;11.10;87.70
18365;DHT22;9309;52.126;11.616;2022-10-03T05:27:30;11.00;87.80
18365;DHT22;9309;52.126;11.616;2022-10-03T05:30:03;11.00;88.00
18365;DHT22;9309;52.126;11.616;2022-10-03T05:32:37;11.10;88.10
18365;DHT22;9309;52.126;11.616;2022-10-03T05:35:21;11.10;87.80
18365;DHT22;9309;52.126;11.616;2022-10-03T05:38:04;11.10;87.30
18365;DHT22;9309;52.126;11.616;2022-10-03T05:40:34;11.10;87.10
18365;DHT22;9309;52.126;11.616;2022-10-03T05:43:07;11.10;87.10
18365;DHT22;9309;52.126;11.616;2022-10-03T05:45:47;11.10;87.20
18365;DHT22;9309;52.126;11.616;2022-10-03T05:48:26;11.10;87.50
18365;DHT22;9309;52.126;11.616;2022-10-03T05:51:21;11.10;86.90
18365;DHT22;9309;52.126;11.616;2022-10-03T05:54:24;11.10;86.50
18365;DHT22;9309;52.126;11.616;2022-10-03T05:57:20;11.10;86.70
18365;DHT22;9309;52.126;11.616;2022-10-03T06:00:17;11.20;86.60
18365;DHT22;9309;52.126;11.616;2022-10-03T06:03:30;11.10;87.20
18365;DHT22;9309;52.126;11.616;2022-10-03T06:06:17;11.10;86.80
18365;DHT22;9309;52.126;11.616;2022-10-03T06:09:09;11.20;86.40
18365;DHT22;9309;52.126;11.616;2022-10-03T06:11:58;11.30;86.00
18365;DHT22;9309;52.126;11.616;2022-10-03T06:14:32;11.30;86.10
18365;DHT22;9309;52.126;11.616;2022-10-03T06:17:27;11.30;86.00
18365;DHT22;9309;52.126;11.616;2022-10-03T06:20:09;11.30;86.20
18365;DHT22;9309;52.126;11.616;2022-10-03T06:23:07;11.30;85.40
18365;DHT22;9309;52.126;11.616;2022-10-03T06:26:16;11.30;85.40
18365;DHT22;9309;52.126;11.616;2022-10-03T06:32:31;11.10;85.90
18365;DHT22;9309;52.126;11.616;2022-10-03T06:35:22;11.20;85.50
18365;DHT22;9309;52.126;11.616;2022-10-03T06:38:41;11.20;85.20
18365;DHT22;9309;52.126;11.616;2022-10-03T06:41:32;11.10;86.10
18365;DHT22;9309;52.126;11.616;2022-10-03T06:44:27;11.10;86.00
18365;DHT22;9309;52.126;11.616;2022-10-03T06:47:18;11.20;85.70
18365;DHT22;9309;52.126;11.616;2022-10-03T06:50:21;11.20;85.50
18365;DHT22;9309;52.126;11.616;2022-10-03T06:52:59;11.20;85.50
18365;DHT22;9309;52.126;11.616;2022-10-03T06:55:47;11.40;85.20
18365;DHT22;9309;52.126;11.616;2022-10-03T06:58:49;11.40;85.10
18365;DHT22;9309;52.126;11.616;2022-10-03T07:01:56;11.50;84.90
18365;DHT22;9309;52.126;11.616;2022-10-03T07:08:02;11.70;84.10
18365;DHT22;9309;52.126;11.616;2022-10-03T07:10:49;11.90;83.30
18365;DHT22;9309;52.126;11.616;2022-10-03T07:16:40;11.90;83.30
18365;DHT22;9309;52.126;11.616;2022-10-03T07:19:37;11.80;83.20
18365;DHT22;9309;52.126;11.616;2022-10-03T07:22:38;11.80;83.00
18365;DHT22;9309;52.126;11.616;2022-10-03T07:25:38;12.00;82.50
18365;DHT22;9309;52.126;11.616;2022-10-03T07:28:44;12.00;82.10
18365;DHT22;9309;52.126;11.616;2022-10-03T07:31:24;11.90;82.50
18365;DHT22;9309;52.126;11.616;2022-10-03T07:34:11;12.00;81.90
18365;DHT22;9309;52.126;11.616;2022-10-03T07:36:59;12.10;81.50
18365;DHT22;9309;52.126;11.616;2022-10-03T07:40:17;12.20;81.30
18365;DHT22;9309;52.126;11.616;2022-10-03T07:43:08;12.10;81.60
18365;DHT22;9309;52.126;11.616;2022-10-03T07:45:43;12.20;81.10
18365;DHT22;9309;52.126;11.616;2022-10-03T07:48:38;12.30;80.70
18365;DHT22;9309;52.126;11.616;2022-10-03T07:51:18;12.30;81.00
18365;DHT22;9309;52.126;11.616;2022-10-03T07:54:17;12.30;81.30
18365;DHT22;9309;52.126;11.616;2022-10-03T07:56:55;12.50;80.40
18365;DHT22;9309;52.126;11.616;2022-10-03T08:00:05;12.50;80.00
18365;DHT22;9309;52.126;11.616;2022-10-03T08:06:13;12.90;79.20
18365;DHT22;9309;52.126;11.616;2022-10-03T08:14:50;13.30;77.50
18365;DHT22;9309;52.126;11.616;2022-10-03T08:20:45;13.30;76.60
18365;DHT22;9309;52.126;11.616;2022-10-03T08:23:43;13.40;77.00
18365;DHT22;9309;52.126;11.616;2022-10-03T08:26:18;13.30;76.50
18365;DHT22;9309;52.126;11.616;2022-10-03T08:29:01;13.20;77.20
18365;DHT22;9309;52.126;11.616;2022-10-03T08:32:02;13.20;77.40
18365;DHT22;9309;52.126;11.616;2022-10-03T08:38:18;14.40;73.10
18365;DHT22;9309;52.126;11.616;2022-10-03T08:44:18;14.70;70.70
18365;DHT22;9309;52.126;11.616;2022-10-03T08:53:30;14.20;73.00
18365;DHT22;9309;52.126;11.616;2022-10-03T08:56:07;14.00;73.90
18365;DHT22;9309;52.126;11.616;2022-10-03T09:02:02;14.10;73.60
18365;DHT22;9309;52.126;11.616;2022-10-03T09:04:59;14.10;73.00
18365;DHT22;9309;52.126;11.616;2022-10-03T09:07:53;14.10;72.60
18365;DHT22;9309;52.126;11.616;2022-10-03T09:10:34;14.00;72.50
18365;DHT22;9309;52.126;11.616;2022-10-03T09:16:20;14.30;72.00
18365;DHT22;9309;52.126;11.616;2022-10-03T09:19:06;14.30;70.60
18365;DHT22;9309;52.126;11.616;2022-10-03T09:22:08;14.50;70.00
18365;DHT22;9309;52.126;11.616;2022-10-03T09:25:12;14.50;70.90
18365;DHT22;9309;52.126;11.616;2022-10-03T09:30:49;15.00;69.60
18365;DHT22;9309;52.126;11.616;2022-10-03T09:33:49;14.90;69.30
18365;DHT22;9309;52.126;11.616;2022-10-03T09:39:57;14.90;69.50
18365;DHT22;9309;52.126;11.616;2022-10-03T09:42:59;14.80;70.20
18365;DHT22;9309;52.126;11.616;2022-10-03T09:48:51;15.00;69.10
18365;DHT22;9309;52.126;11.616;2022-10-03T09:51:41;15.20;67.90
18365;DHT22;9309;52.126;11.616;2022-10-03T09:54:55;15.20;66.20
18365;DHT22;9309;52.126;11.616;2022-10-03T10:00:25;15.40;66.90
18365;DHT22;9309;52.126;11.616;2022-10-03T10:03:17;15.40;67.10
18365;DHT22;9309;52.126;11.616;2022-10-03T10:06:02;15.50;66.60
18365;DHT22;9309;52.126;11.616;2022-10-03T10:08:53;15.90;66.60
18365;DHT22;9309;52.126;11.616;2022-10-03T10:11:47;16.50;63.40
18365;DHT22;9309;52.126;11.616;2022-10-03T10:17:52;15.60;65.40
18365;DHT22;9309;52.126;11.616;2022-10-03T10:20:39;16.40;64.70
18365;DHT22;9309;52.126;11.616;2022-10-03T10:23:33;18.10;58.00
18365;DHT22;9309;52.126;11.616;2022-10-03T10:26:20;18.00;57.30
18365;DHT22;9309;52.126;11.616;2022-10-03T10:29:24;17.40;59.20
18365;DHT22;9309;52.126;11.616;2022-10-03T10:38:27;15.70;64.60
18365;DHT22;9309;52.126;11.616;2022-10-03T10:44:28;15.90;63.70
18365;DHT22;9309;52.126;11.616;2022-10-03T10:47:10;16.00;63.30
18365;DHT22;9309;52.126;11.616;2022-10-03T11:02:20;16.10;63.00
18365;DHT22;9309;52.126;11.616;2022-10-03T11:08:45;15.20;67.30
18365;DHT22;9309;52.126;11.616;2022-10-03T11:11:40;15.40;67.60
18365;DHT22;9309;52.126;11.616;2022-10-03T11:17:52;16.10;64.80
18365;DHT22;9309;52.126;11.616;2022-10-03T11:30:21;16.90;59.90
18365;DHT22;9309;52.126;11.616;2022-10-03T11:36:37;16.50;62.10
18365;DHT22;9309;52.126;11.616;2022-10-03T11:39:18;16.50;62.20
18365;DHT22;9309;52.126;11.616;2022-10-03T11:41:53;16.40;61.70
18365;DHT22;9309;52.126;11.616;2022-10-03T11:44:24;16.40;62.60
18365;DHT22;9309;52.126;11.616;2022-10-03T11:47:10;16.50;62.50
18365;DHT22;9309;52.126;11.616;2022-10-03T11:49:58;16.30;62.90
18365;DHT22;9309;52.126;11.616;2022-10-03T11:52:29;16.80;61.30
18365;DHT22;9309;52.126;11.616;2022-10-03T11:55:08;17.00;60.20
18365;DHT22;9309;52.126;11.616;2022-10-03T11:57:46;18.70;56.10
18365;DHT22;9309;52.126;11.616;2022-10-03T12:00:18;20.40;51.10
18365;DHT22;9309;52.126;11.616;2022-10-03T12:03:14;20.00;51.70
18365;DHT22;9309;52.126;11.616;2022-10-03T12:05:53;19.90;52.10
18365;DHT22;9309;52.126;11.616;2022-10-03T12:08:49;19.60;53.30
18365;DHT22;9309;52.126;11.616;2022-10-03T12:11:23;21.90;48.70
18365;DHT22;9309;52.126;11.616;2022-10-03T12:14:13;23.60;44.20
18365;DHT22;9309;52.126;11.616;2022-10-03T12:16:58;24.20;43.10
18365;DHT22;9309;52.126;11.616;2022-10-03T12:19:33;24.70;41.90
18365;DHT22;9309;52.126;11.616;2022-10-03T12:22:12;24.90;41.30
18365;DHT22;9309;52.126;11.616;2022-10-03T12:24:43;23.60;43.30
18365;DHT22;9309;52.126;11.616;2022-10-03T12:27:18;23.60;43.30
18365;DHT22;9309;52.126;11.616;2022-10-03T12:29:54;24.30;42.10
18365;DHT22;9309;52.126;11.616;2022-10-03T12:32:30;25.10;40.50
18365;DHT22;9309;52.126;11.616;2022-10-03T12:35:28;24.90;40.70
18365;DHT22;9309;52.126;11.616;2022-10-03T12:38:10;22.60;44.40
18365;DHT22;9309;52.126;11.616;2022-10-03T12:40:41;23.20;44.20
18365;DHT22;9309;52.126;11.616;2022-10-03T12:43:22;23.40;43.40
18365;DHT22;9309;52.126;11.616;2022-10-03T12:45:58;23.50;42.50
18365;DHT22;9309;52.126;11.616;2022-10-03T12:48:38;22.40;44.70
18365;DHT22;9309;52.126;11.616;2022-10-03T12:51:17;20.70;48.80
18365;DHT22;9309;52.126;11.616;2022-10-03T12:53:54;21.00;48.10
18365;DHT22;9309;52.126;11.616;2022-10-03T12:56:30;20.20;49.40
18365;DHT22;9309;52.126;11.616;2022-10-03T12:59:10;18.90;52.60
18365;DHT22;9309;52.126;11.616;2022-10-03T13:01:55;17.90;56.00
18365;DHT22;9309;52.126;11.616;2022-10-03T13:04:33;17.00;59.80
18365;DHT22;9309;52.126;11.616;2022-10-03T13:07:25;16.30;64.30
18365;DHT22;9309;52.126;11.616;2022-10-03T13:10:08;15.60;69.20
18365;DHT22;9309;52.126;11.616;2022-10-03T13:12:42;15.40;70.70
18365;DHT22;9309;52.126;11.616;2022-10-03T13:15:42;15.90;70.60
18365;DHT22;9309;52.126;11.616;2022-10-03T13:18:26;19.20;60.30
18365;DHT22;9309;52.126;11.616;2022-10-03T13:21:00;22.40;49.80
18365;DHT22;9309;52.126;11.616;2022-10-03T13:23:40;25.00;43.50
18365;DHT22;9309;52.126;11.616;2022-10-03T13:26:12;25.90;40.70
18365;DHT22;9309;52.126;11.616;2022-10-03T13:28:54;26.80;39.30
18365;DHT22;9309;52.126;11.616;2022-10-03T13:31:25;27.40;37.40
18365;DHT22;9309;52.126;11.616;2022-10-03T13:33:57;27.00;37.70
18365;DHT22;9309;52.126;11.616;2022-10-03T13:36:29;24.40;41.80
18365;DHT22;9309;52.126;11.616;2022-10-03T13:39:15;22.50;44.50
18365;DHT22;9309;52.126;11.616;2022-10-03T13:42:01;21.80;46.90
18365;DHT22;9309;52.126;11.616;2022-10-03T13:44:37;21.60;46.90
18365;DHT22;9309;52.126;11.616;2022-10-03T13:47:27;21.30;48.70
18365;DHT22;9309;52.126;11.616;2022-10-03T13:49:56;20.50;50.60
18365;DHT22;9309;52.126;11.616;2022-10-03T13:52:35;19.40;54.10
18365;DHT22;9309;52.126;11.616;2022-10-03T13:55:22;18.50;57.10
18365;DHT22;9309;52.126;11.616;2022-10-03T14:01:20;17.30;61.70
18365;DHT22;9309;52.126;11.616;2022-10-03T14:04:06;16.90;63.80
18365;DHT22;9309;52.126;11.616;2022-10-03T14:06:40;16.70;64.20
18365;DHT22;9309;52.126;11.616;2022-10-03T14:09:27;16.40;63.60
18365;DHT22;9309;52.126;11.616;2022-10-03T14:12:08;16.20;62.50
18365;DHT22;9309;52.126;11.616;2022-10-03T14:14:53;16.00;63.50
18365;DHT22;9309;52.126;11.616;2022-10-03T14:17:30;16.00;64.60
18365;DHT22;9309;52.126;11.616;2022-10-03T14:20:13;15.90;65.50
18365;DHT22;9309;52.126;11.616;2022-10-03T14:22:58;15.80;66.20
18365;DHT22;9309;52.126;11.616;2022-10-03T14:25:29;15.80;67.10
18365;DHT22;9309;52.126;11.616;2022-10-03T14:28:07;15.60;69.60
18365;DHT22;9309;52.126;11.616;2022-10-03T14:30:45;15.30;71.10
18365;DHT22;9309;52.126;11.616;2022-10-03T14:33:19;15.40;70.80
18365;DHT22;9309;52.126;11.616;2022-10-03T14:36:00;15.50;70.20
18365;DHT22;9309;52.126;11.616;2022-10-03T14:38:50;15.70;69.20
18365;DHT22;9309;52.126;11.616;2022-10-03T14:41:55;15.60;69.80
18365;DHT22;9309;52.126;11.616;2022-10-03T14:44:35;15.30;75.00
18365;DHT22;9309;52.126;11.616;2022-10-03T14:47:08;14.50;80.20
18365;DHT22;9309;52.126;11.616;2022-10-03T14:49:39;14.30;82.20
18365;DHT22;9309;52.126;11.616;2022-10-03T14:52:19;14.20;82.00
18365;DHT22;9309;52.126;11.616;2022-10-03T14:54:49;13.90;82.70
18365;DHT22;9309;52.126;11.616;2022-10-03T14:57:27;13.80;84.10
18365;DHT22;9309;52.126;11.616;2022-10-03T14:59:57;13.90;84.10
18365;DHT22;9309;52.126;11.616;2022-10-03T15:02:29;13.90;83.30
18365;DHT22;9309;52.126;11.616;2022-10-03T15:05:02;13.80;84.00
18365;DHT22;9309;52.126;11.616;2022-10-03T15:07:35;13.90;83.50
18365;DHT22;9309;52.126;11.616;2022-10-03T15:10:08;14.00;82.70
18365;DHT22;9309;52.126;11.616;2022-10-03T15:12:37;14.30;82.40
18365;DHT22;9309;52.126;11.616;2022-10-03T15:15:10;14.40;81.20
18365;DHT22;9309;52.126;11.616;2022-10-03T15:17:44;14.60;79.50
18365;DHT22;9309;52.126;11.616;2022-10-03T15:20:12;14.70;79.00
18365;DHT22;9309;52.126;11.616;2022-10-03T15:22:47;14.60;78.30
18365;DHT22;9309;52.126;11.616;2022-10-03T15:25:17;14.70;78.80
18365;DHT22;9309;52.126;11.616;2022-10-03T15:27:48;14.80;77.70
18365;DHT22;9309;52.126;11.616;2022-10-03T15:30:21;14.70;77.90
18365;DHT22;9309;52.126;11.616;2022-10-03T15:32:50;14.60;78.30
18365;DHT22;9309;52.126;11.616;2022-10-03T15:35:22;14.70;77.90
18365;DHT22;9309;52.126;11.616;2022-10-03T15:37:51;14.80;77.50
18365;DHT22;9309;52.126;11.616;2022-10-03T15:40:23;14.90;77.50
18365;DHT22;9309;52.126;11.616;2022-10-03T15:43:02;14.90;77.60
18365;DHT22;9309;52.126;11.616;2022-10-03T15:45:34;14.90;77.10
18365;DHT22;9309;52.126;11.616;2022-10-03T15:48:04;14.90;77.10
18365;DHT22;9309;52.126;11.616;2022-10-03T15:50:35;15.00;76.60
18365;DHT22;9309;52.126;11.616;2022-10-03T15:53:20;14.90;77.20
18365;DHT22;9309;52.126;11.616;2022-10-03T15:55:50;14.80;76.70
18365;DHT22;9309;52.126;11.616;2022-10-03T15:58:22;14.70;77.10
18365;DHT22;9309;52.126;11.616;2022-10-03T16:00:59;14.80;76.90
18365;DHT22;9309;52.126;11.616;2022-10-03T16:03:30;14.70;76.80
18365;DHT22;9309;52.126;11.616;2022-10-03T16:06:06;14.60;77.30
18365;DHT22;9309;52.126;11.616;2022-10-03T16:08:44;14.60;77.50
18365;DHT22;9309;52.126;11.616;2022-10-03T16:11:20;14.50;77.80
18365;DHT22;9309;52.126;11.616;2022-10-03T16:13:56;14.50;78.30
18365;DHT22;9309;52.126;11.616;2022-10-03T16:16:32;14.60;78.00
18365;DHT22;9309;52.126;11.616;2022-10-03T16:19:28;14.60;77.80
18365;DHT22;9309;52.126;11.616;2022-10-03T16:22:07;14.40;78.40
18365;DHT22;9309;52.126;11.616;2022-10-03T16:24:41;14.40;78.10
18365;DHT22;9309;52.126;11.616;2022-10-03T16:27:14;14.40;78.00
18365;DHT22;9309;52.126;11.616;2022-10-03T16:29:47;14.40;78.10
18365;DHT22;9309;52.126;11.616;2022-10-03T16:32:20;14.40;78.00
18365;DHT22;9309;52.126;11.616;2022-10-03T16:34:48;14.30;78.00
18365;DHT22;9309;52.126;11.616;2022-10-03T16:37:18;14.30;78.70
18365;DHT22;9309;52.126;11.616;2022-10-03T16:39:53;14.20;78.40
18365;DHT22;9309;52.126;11.616;2022-10-03T16:42:22;14.20;78.60
18365;DHT22;9309;52.126;11.616;2022-10-03T16:44:52;14.30;78.20
18365;DHT22;9309;52.126;11.616;2022-10-03T16:47:32;14.30;77.80
18365;DHT22;9309;52.126;11.616;2022-10-03T16:50:00;14.30;77.90
18365;DHT22;9309;52.126;11.616;2022-10-03T16:52:47;14.20;78.40
18365;DHT22;9309;52.126;11.616;2022-10-03T16:55:22;14.20;78.50
18365;DHT22;9309;52.126;11.616;2022-10-03T16:57:55;14.30;77.40
18365;DHT22;9309;52.126;11.616;2022-10-03T17:00:25;14.30;78.00
18365;DHT22;9309;52.126;11.616;2022-10-03T17:02:56;14.30;78.10
18365;DHT22;9309;52.126;11.616;2022-10-03T17:05:23;14.30;77.70
18365;DHT22;9309;52.126;11.616;2022-10-03T17:07:53;14.30;78.30
18365;DHT22;9309;52.126;11.616;2022-10-03T17:10:31;14.40;77.70
18365;DHT22;9309;52.126;11.616;2022-10-03T17:13:01;14.40;77.50
18365;DHT22;9309;52.126;11.616;2022-10-03T17:15:32;14.30;77.50
18365;DHT22;9309;52.126;11.616;2022-10-03T17:18:12;14.30;77.90
18365;DHT22;9309;52.126;11.616;2022-10-03T17:20:42;14.30;78.10
18365;DHT22;9309;52.126;11.616;2022-10-03T17:23:21;14.30;77.90
18365;DHT22;9309;52.126;11.616;2022-10-03T17:25:57;14.30;77.60
18365;DHT22;9309;52.126;11.616;2022-10-03T17:28:31;14.30;78.00
18365;DHT22;9309;52.126;11.616;2022-10-03T17:31:03;14.10;78.60
18365;DHT22;9309;52.126;11.616;2022-10-03T17:33:37;14.20;78.40
18365;DHT22;9309;52.126;11.616;2022-10-03T17:36:41;14.30;78.10
18365;DHT22;9309;52.126;11.616;2022-10-03T17:39:14;14.30;77.80
18365;DHT22;9309;52.126;11.616;2022-10-03T17:41:50;14.30;77.80
18365;DHT22;9309;52.126;11.616;2022-10-03T17:44:25;14.20;78.30
18365;DHT22;9309;52.126;11.616;2022-10-03T17:46:59;14.20;78.30
18365;DHT22;9309;52.126;11.616;2022-10-03T17:49:42;14.10;78.40
18365;DHT22;9309;52.126;11.616;2022-10-03T17:52:15;14.30;78.20
18365;DHT22;9309;52.126;11.616;2022-10-03T17:54:44;14.20;78.50
18365;DHT22;9309;52.126;11.616;2022-10-03T17:57:17;14.20;77.80
18365;DHT22;9309;52.126;11.616;2022-10-03T17:59:53;14.20;78.00
18365;DHT22;9309;52.126;11.616;2022-10-03T18:02:28;14.20;78.00
18365;DHT22;9309;52.126;11.616;2022-10-03T18:05:10;14.20;77.90
18365;DHT22;9309;52.126;11.616;2022-10-03T18:07:39;14.20;77.80
18365;DHT22;9309;52.126;11.616;2022-10-03T18:10:18;14.10;77.60
18365;DHT22;9309;52.126;11.616;2022-10-03T18:12:47;14.10;78.10
18365;DHT22;9309;52.126;11.616;2022-10-03T18:15:38;14.10;78.00
18365;DHT22;9309;52.126;11.616;2022-10-03T18:21:09;14.10;77.90
18365;DHT22;9309;52.126;11.616;2022-10-03T18:23:48;14.10;77.90
18365;DHT22;9309;52.126;11.616;2022-10-03T18:26:24;14.20;77.20
18365;DHT22;9309;52.126;11.616;2022-10-03T18:29:00;14.10;77.60
18365;DHT22;9309;52.126;11.616;2022-10-03T18:31:31;14.10;77.90
18365;DHT22;9309;52.126;11.616;2022-10-03T18:34:02;14.20;77.30
18365;DHT22;9309;52.126;11.616;2022-10-03T18:36:35;14.10;77.50
18365;DHT22;9309;52.126;11.616;2022-10-03T18:39:06;14.10;77.60
18365;DHT22;9309;52.126;11.616;2022-10-03T18:41:33;14.20;77.00
18365;DHT22;9309;52.126;11.616;2022-10-03T18:44:01;14.10;76.90
18365;DHT22;9309;52.126;11.616;2022-10-03T18:46:31;14.20;77.00
18365;DHT22;9309;52.126;11.616;2022-10-03T18:49:04;14.10;77.20
18365;DHT22;9309;52.126;11.616;2022-10-03T18:51:36;14.20;77.10
18365;DHT22;9309;52.126;11.616;2022-10-03T18:54:13;14.10;77.30
18365;DHT22;9309;52.126;11.616;2022-10-03T18:56:45;14.20;76.80
18365;DHT22;9309;52.126;11.616;2022-10-03T18:59:23;14.10;76.90
18365;DHT22;9309;52.126;11.616;2022-10-03T19:01:57;14.20;76.80
18365;DHT22;9309;52.126;11.616;2022-10-03T19:04:37;14.20;76.50
18365;DHT22;9309;52.126;11.616;2022-10-03T19:07:18;14.30;76.20
18365;DHT22;9309;52.126;11.616;2022-10-03T19:12:57;14.20;76.20
18365;DHT22;9309;52.126;11.616;2022-10-03T19:15:35;14.20;76.50
18365;DHT22;9309;52.126;11.616;2022-10-03T19:18:12;14.10;77.20
18365;DHT22;9309;52.126;11.616;2022-10-03T19:20:47;14.20;76.30